Almont, Michigan
Current Conditions -  °F | °C
As of 9:34 PM on Friday 21 Nov 2014 (Local Time) from KD95 Reporting Station
Clear Clear  
Wind Chill: 11°   Ceiling: Unl
Heat Index: 22°   Visibility: 10mi
Dew Point: 13°   Wind: 9mph
Humidity: 69%   Direction: 210°SSW
Pressure: 30.33"   Gusts: NA
Location:  42.92°N, 83.04°W
Report Text: KD95 220234Z AUTO 21008KT 10SM CLR M06/M11 A3033 RMK AO2 T10581106
Loading
Personal Weather Stations






























Interactive Weather Map New forecast layout! Learn more

10-Day Weather Forecast

Advertisements
Track Severe Weather on mobile